sensor_id;sensor_type;location;lat;lon;timestamp;P1;durP1;ratioP1;P2;durP2;ratioP2
48813;SDS011;34634;44.108;3.074;2023-02-13T00:01:44;15.90;;;8.35;;
48813;SDS011;34634;44.108;3.074;2023-02-13T00:04:11;16.83;;;8.63;;
48813;SDS011;34634;44.108;3.074;2023-02-13T00:06:37;20.20;;;9.25;;
48813;SDS011;34634;44.108;3.074;2023-02-13T00:09:03;17.95;;;9.43;;
48813;SDS011;34634;44.108;3.074;2023-02-13T00:11:29;16.92;;;8.93;;
48813;SDS011;34634;44.108;3.074;2023-02-13T00:13:57;17.38;;;9.02;;
48813;SDS011;34634;44.108;3.074;2023-02-13T00:16:23;17.98;;;9.13;;
48813;SDS011;34634;44.108;3.074;2023-02-13T00:18:49;17.00;;;8.75;;
48813;SDS011;34634;44.108;3.074;2023-02-13T00:21:16;20.38;;;9.13;;
48813;SDS011;34634;44.108;3.074;2023-02-13T00:23:42;19.48;;;9.43;;
48813;SDS011;34634;44.108;3.074;2023-02-13T00:26:10;18.35;;;8.65;;
48813;SDS011;34634;44.108;3.074;2023-02-13T00:28:36;16.00;;;8.10;;
48813;SDS011;34634;44.108;3.074;2023-02-13T00:31:04;14.68;;;7.97;;
48813;SDS011;34634;44.108;3.074;2023-02-13T00:33:30;14.40;;;7.85;;
48813;SDS011;34634;44.108;3.074;2023-02-13T00:36:07;15.15;;;7.90;;
48813;SDS011;34634;44.108;3.074;2023-02-13T00:38:34;13.07;;;7.35;;
48813;SDS011;34634;44.108;3.074;2023-02-13T00:41:01;14.10;;;7.78;;
48813;SDS011;34634;44.108;3.074;2023-02-13T00:43:27;16.52;;;8.60;;
48813;SDS011;34634;44.108;3.074;2023-02-13T00:45:53;15.93;;;8.13;;
48813;SDS011;34634;44.108;3.074;2023-02-13T00:48:21;18.42;;;8.40;;
48813;SDS011;34634;44.108;3.074;2023-02-13T00:50:47;14.73;;;8.23;;
48813;SDS011;34634;44.108;3.074;2023-02-13T00:53:13;19.42;;;9.18;;
48813;SDS011;34634;44.108;3.074;2023-02-13T00:55:40;16.48;;;8.45;;
48813;SDS011;34634;44.108;3.074;2023-02-13T00:58:06;17.58;;;9.20;;
48813;SDS011;34634;44.108;3.074;2023-02-13T01:00:32;17.98;;;9.27;;
48813;SDS011;34634;44.108;3.074;2023-02-13T01:02:59;18.77;;;9.15;;
48813;SDS011;34634;44.108;3.074;2023-02-13T01:05:26;17.00;;;8.48;;
48813;SDS011;34634;44.108;3.074;2023-02-13T01:07:52;20.02;;;9.00;;
48813;SDS011;34634;44.108;3.074;2023-02-13T01:10:19;12.93;;;7.32;;
48813;SDS011;34634;44.108;3.074;2023-02-13T01:12:45;12.95;;;6.43;;
48813;SDS011;34634;44.108;3.074;2023-02-13T01:15:11;15.43;;;7.57;;
48813;SDS011;34634;44.108;3.074;2023-02-13T01:17:38;12.65;;;6.65;;
48813;SDS011;34634;44.108;3.074;2023-02-13T01:20:05;10.60;;;6.30;;
48813;SDS011;34634;44.108;3.074;2023-02-13T01:22:31;13.48;;;6.47;;
48813;SDS011;34634;44.108;3.074;2023-02-13T01:24:58;17.02;;;7.18;;
48813;SDS011;34634;44.108;3.074;2023-02-13T01:27:25;12.85;;;6.75;;
48813;SDS011;34634;44.108;3.074;2023-02-13T01:29:52;14.50;;;7.25;;
48813;SDS011;34634;44.108;3.074;2023-02-13T01:32:19;16.23;;;8.07;;
48813;SDS011;34634;44.108;3.074;2023-02-13T01:34:45;13.88;;;7.60;;
48813;SDS011;34634;44.108;3.074;2023-02-13T01:37:11;12.85;;;7.03;;
48813;SDS011;34634;44.108;3.074;2023-02-13T01:39:38;12.65;;;7.30;;
48813;SDS011;34634;44.108;3.074;2023-02-13T01:42:04;14.63;;;8.05;;
48813;SDS011;34634;44.108;3.074;2023-02-13T01:49:50;13.73;;;7.75;;
48813;SDS011;34634;44.108;3.074;2023-02-13T01:52:18;16.23;;;7.80;;
48813;SDS011;34634;44.108;3.074;2023-02-13T01:54:45;18.30;;;7.80;;
48813;SDS011;34634;44.108;3.074;2023-02-13T01:57:13;14.15;;;6.90;;
48813;SDS011;34634;44.108;3.074;2023-02-13T01:59:43;12.65;;;7.35;;
48813;SDS011;34634;44.108;3.074;2023-02-13T02:02:11;14.43;;;7.60;;
48813;SDS011;34634;44.108;3.074;2023-02-13T02:04:38;13.05;;;6.78;;
48813;SDS011;34634;44.108;3.074;2023-02-13T02:07:07;12.48;;;5.95;;
48813;SDS011;34634;44.108;3.074;2023-02-13T02:09:36;12.07;;;6.30;;
48813;SDS011;34634;44.108;3.074;2023-02-13T02:14:30;12.70;;;6.95;;
48813;SDS011;34634;44.108;3.074;2023-02-13T02:16:56;12.05;;;7.22;;
48813;SDS011;34634;44.108;3.074;2023-02-13T02:19:34;11.63;;;6.65;;
48813;SDS011;34634;44.108;3.074;2023-02-13T02:24:45;10.57;;;6.43;;
48813;SDS011;34634;44.108;3.074;2023-02-13T02:37:43;15.75;;;6.50;;
48813;SDS011;34634;44.108;3.074;2023-02-13T02:46:15;18.45;;;8.60;;
48813;SDS011;34634;44.108;3.074;2023-02-13T02:48:34;21.77;;;10.18;;
48813;SDS011;34634;44.108;3.074;2023-02-13T02:51:29;19.50;;;8.27;;
48813;SDS011;34634;44.108;3.074;2023-02-13T02:56:30;16.45;;;7.25;;
48813;SDS011;34634;44.108;3.074;2023-02-13T02:59:01;14.60;;;7.55;;
48813;SDS011;34634;44.108;3.074;2023-02-13T03:01:47;14.30;;;7.63;;
48813;SDS011;34634;44.108;3.074;2023-02-13T03:04:35;14.32;;;7.72;;
48813;SDS011;34634;44.108;3.074;2023-02-13T03:07:22;13.93;;;7.63;;
48813;SDS011;34634;44.108;3.074;2023-02-13T03:09:50;14.10;;;7.45;;
48813;SDS011;34634;44.108;3.074;2023-02-13T03:12:46;14.23;;;7.55;;
48813;SDS011;34634;44.108;3.074;2023-02-13T03:15:34;17.38;;;9.15;;
48813;SDS011;34634;44.108;3.074;2023-02-13T03:18:21;13.07;;;7.57;;
48813;SDS011;34634;44.108;3.074;2023-02-13T03:21:17;14.43;;;7.65;;
48813;SDS011;34634;44.108;3.074;2023-02-13T03:24:07;14.70;;;7.35;;
48813;SDS011;34634;44.108;3.074;2023-02-13T03:26:41;13.60;;;7.30;;
48813;SDS011;34634;44.108;3.074;2023-02-13T03:34:27;9.35;;;6.25;;
48813;SDS011;34634;44.108;3.074;2023-02-13T03:37:15;12.45;;;7.00;;
48813;SDS011;34634;44.108;3.074;2023-02-13T03:44:58;14.68;;;7.03;;
48813;SDS011;34634;44.108;3.074;2023-02-13T03:47:44;11.68;;;6.50;;
48813;SDS011;34634;44.108;3.074;2023-02-13T03:50:12;15.60;;;7.18;;
48813;SDS011;34634;44.108;3.074;2023-02-13T03:55:39;14.35;;;6.55;;
48813;SDS011;34634;44.108;3.074;2023-02-13T04:01:09;12.95;;;7.43;;
48813;SDS011;34634;44.108;3.074;2023-02-13T04:06:08;12.40;;;6.30;;
48813;SDS011;34634;44.108;3.074;2023-02-13T04:08:35;14.57;;;6.93;;
48813;SDS011;34634;44.108;3.074;2023-02-13T04:11:20;17.75;;;7.80;;
48813;SDS011;34634;44.108;3.074;2023-02-13T04:13:51;18.77;;;7.47;;
48813;SDS011;34634;44.108;3.074;2023-02-13T04:16:20;14.32;;;7.15;;
48813;SDS011;34634;44.108;3.074;2023-02-13T04:18:48;13.18;;;6.90;;
48813;SDS011;34634;44.108;3.074;2023-02-13T04:21:17;11.50;;;6.30;;
48813;SDS011;34634;44.108;3.074;2023-02-13T04:23:43;12.55;;;6.22;;
48813;SDS011;34634;44.108;3.074;2023-02-13T04:26:12;13.98;;;6.95;;
48813;SDS011;34634;44.108;3.074;2023-02-13T04:28:40;17.30;;;8.25;;
48813;SDS011;34634;44.108;3.074;2023-02-13T04:31:06;20.42;;;9.13;;
48813;SDS011;34634;44.108;3.074;2023-02-13T04:33:32;23.23;;;9.63;;
48813;SDS011;34634;44.108;3.074;2023-02-13T04:35:59;19.77;;;9.07;;
48813;SDS011;34634;44.108;3.074;2023-02-13T04:38:25;14.88;;;7.70;;
48813;SDS011;34634;44.108;3.074;2023-02-13T04:40:51;14.77;;;7.75;;
48813;SDS011;34634;44.108;3.074;2023-02-13T04:43:18;16.95;;;8.18;;
48813;SDS011;34634;44.108;3.074;2023-02-13T04:45:47;19.05;;;8.85;;
48813;SDS011;34634;44.108;3.074;2023-02-13T04:48:13;18.55;;;8.75;;
48813;SDS011;34634;44.108;3.074;2023-02-13T04:50:39;21.15;;;9.07;;
48813;SDS011;34634;44.108;3.074;2023-02-13T04:53:06;16.25;;;7.40;;
48813;SDS011;34634;44.108;3.074;2023-02-13T04:55:32;15.75;;;7.72;;
48813;SDS011;34634;44.108;3.074;2023-02-13T04:57:58;16.65;;;7.82;;
48813;SDS011;34634;44.108;3.074;2023-02-13T05:00:26;15.02;;;6.85;;
48813;SDS011;34634;44.108;3.074;2023-02-13T05:02:53;10.25;;;6.13;;
48813;SDS011;34634;44.108;3.074;2023-02-13T05:05:19;11.18;;;6.22;;
48813;SDS011;34634;44.108;3.074;2023-02-13T05:07:45;10.70;;;6.03;;
48813;SDS011;34634;44.108;3.074;2023-02-13T05:10:12;12.93;;;6.82;;
48813;SDS011;34634;44.108;3.074;2023-02-13T05:12:38;9.80;;;5.90;;
48813;SDS011;34634;44.108;3.074;2023-02-13T05:15:05;12.63;;;6.50;;
48813;SDS011;34634;44.108;3.074;2023-02-13T05:17:31;16.52;;;8.27;;
48813;SDS011;34634;44.108;3.074;2023-02-13T05:19:57;15.25;;;8.15;;
48813;SDS011;34634;44.108;3.074;2023-02-13T05:22:24;12.07;;;6.57;;
48813;SDS011;34634;44.108;3.074;2023-02-13T05:25:09;17.05;;;7.43;;
48813;SDS011;34634;44.108;3.074;2023-02-13T05:27:35;14.88;;;7.68;;
48813;SDS011;34634;44.108;3.074;2023-02-13T05:30:02;13.73;;;7.55;;
48813;SDS011;34634;44.108;3.074;2023-02-13T05:32:28;11.50;;;6.45;;
48813;SDS011;34634;44.108;3.074;2023-02-13T05:34:54;21.80;;;10.55;;
48813;SDS011;34634;44.108;3.074;2023-02-13T05:37:20;24.75;;;11.40;;
48813;SDS011;34634;44.108;3.074;2023-02-13T05:39:47;22.48;;;11.27;;
48813;SDS011;34634;44.108;3.074;2023-02-13T05:42:13;21.95;;;10.25;;
48813;SDS011;34634;44.108;3.074;2023-02-13T05:44:39;18.15;;;9.25;;
48813;SDS011;34634;44.108;3.074;2023-02-13T05:47:06;20.90;;;8.77;;
48813;SDS011;34634;44.108;3.074;2023-02-13T05:49:32;15.90;;;8.65;;
48813;SDS011;34634;44.108;3.074;2023-02-13T05:51:58;15.88;;;9.02;;
48813;SDS011;34634;44.108;3.074;2023-02-13T05:54:25;18.13;;;8.73;;
48813;SDS011;34634;44.108;3.074;2023-02-13T05:56:51;16.17;;;8.30;;
48813;SDS011;34634;44.108;3.074;2023-02-13T05:59:17;14.65;;;7.72;;
48813;SDS011;34634;44.108;3.074;2023-02-13T06:01:44;14.63;;;8.10;;
48813;SDS011;34634;44.108;3.074;2023-02-13T06:04:10;21.85;;;10.10;;
48813;SDS011;34634;44.108;3.074;2023-02-13T06:06:36;22.08;;;10.75;;
48813;SDS011;34634;44.108;3.074;2023-02-13T06:09:03;21.42;;;9.90;;
48813;SDS011;34634;44.108;3.074;2023-02-13T06:11:29;15.73;;;8.63;;
48813;SDS011;34634;44.108;3.074;2023-02-13T06:13:55;17.27;;;8.13;;
48813;SDS011;34634;44.108;3.074;2023-02-13T06:16:22;14.38;;;7.95;;
48813;SDS011;34634;44.108;3.074;2023-02-13T06:18:48;15.35;;;7.90;;
48813;SDS011;34634;44.108;3.074;2023-02-13T06:21:14;14.65;;;7.68;;
48813;SDS011;34634;44.108;3.074;2023-02-13T06:23:41;12.73;;;7.28;;
48813;SDS011;34634;44.108;3.074;2023-02-13T06:26:07;22.63;;;9.73;;
48813;SDS011;34634;44.108;3.074;2023-02-13T06:28:35;31.25;;;13.80;;
48813;SDS011;34634;44.108;3.074;2023-02-13T06:31:01;43.03;;;17.13;;
48813;SDS011;34634;44.108;3.074;2023-02-13T06:33:28;28.17;;;14.68;;
48813;SDS011;34634;44.108;3.074;2023-02-13T06:35:54;24.83;;;10.75;;
48813;SDS011;34634;44.108;3.074;2023-02-13T06:38:20;18.85;;;8.73;;
48813;SDS011;34634;44.108;3.074;2023-02-13T06:40:47;14.35;;;7.82;;
48813;SDS011;34634;44.108;3.074;2023-02-13T06:43:14;15.45;;;8.13;;
48813;SDS011;34634;44.108;3.074;2023-02-13T06:45:40;14.43;;;8.27;;
48813;SDS011;34634;44.108;3.074;2023-02-13T06:48:07;18.73;;;9.02;;
48813;SDS011;34634;44.108;3.074;2023-02-13T06:50:33;24.55;;;9.70;;
48813;SDS011;34634;44.108;3.074;2023-02-13T06:52:59;15.18;;;8.20;;
48813;SDS011;34634;44.108;3.074;2023-02-13T06:55:26;23.20;;;10.80;;
48813;SDS011;34634;44.108;3.074;2023-02-13T06:57:52;23.20;;;10.77;;
48813;SDS011;34634;44.108;3.074;2023-02-13T07:00:18;19.02;;;10.75;;
48813;SDS011;34634;44.108;3.074;2023-02-13T07:02:45;26.40;;;11.75;;
48813;SDS011;34634;44.108;3.074;2023-02-13T07:05:15;19.77;;;10.25;;
48813;SDS011;34634;44.108;3.074;2023-02-13T07:07:41;23.65;;;12.18;;
48813;SDS011;34634;44.108;3.074;2023-02-13T07:10:09;27.58;;;13.75;;
48813;SDS011;34634;44.108;3.074;2023-02-13T07:12:36;30.00;;;13.85;;
48813;SDS011;34634;44.108;3.074;2023-02-13T07:15:03;35.53;;;15.20;;
48813;SDS011;34634;44.108;3.074;2023-02-13T07:17:29;26.63;;;11.68;;
48813;SDS011;34634;44.108;3.074;2023-02-13T07:19:56;26.80;;;12.55;;
48813;SDS011;34634;44.108;3.074;2023-02-13T07:22:22;22.70;;;12.00;;
48813;SDS011;34634;44.108;3.074;2023-02-13T07:24:49;21.13;;;11.63;;
48813;SDS011;34634;44.108;3.074;2023-02-13T07:27:15;29.02;;;13.35;;
48813;SDS011;34634;44.108;3.074;2023-02-13T07:29:41;27.33;;;12.93;;
48813;SDS011;34634;44.108;3.074;2023-02-13T07:32:08;19.52;;;10.68;;
48813;SDS011;34634;44.108;3.074;2023-02-13T07:34:34;19.90;;;9.93;;
48813;SDS011;34634;44.108;3.074;2023-02-13T07:37:00;19.70;;;10.27;;
48813;SDS011;34634;44.108;3.074;2023-02-13T07:39:27;22.70;;;10.65;;
48813;SDS011;34634;44.108;3.074;2023-02-13T07:41:54;20.55;;;9.48;;
48813;SDS011;34634;44.108;3.074;2023-02-13T07:44:20;18.88;;;7.22;;
48813;SDS011;34634;44.108;3.074;2023-02-13T07:46:46;22.00;;;10.98;;
48813;SDS011;34634;44.108;3.074;2023-02-13T07:49:13;23.60;;;8.73;;
48813;SDS011;34634;44.108;3.074;2023-02-13T07:51:39;15.02;;;7.25;;
48813;SDS011;34634;44.108;3.074;2023-02-13T07:54:05;21.40;;;10.77;;
48813;SDS011;34634;44.108;3.074;2023-02-13T07:56:32;30.17;;;9.73;;
48813;SDS011;34634;44.108;3.074;2023-02-13T07:58:58;24.98;;;8.23;;
48813;SDS011;34634;44.108;3.074;2023-02-13T08:01:24;20.13;;;7.82;;
48813;SDS011;34634;44.108;3.074;2023-02-13T08:03:51;21.77;;;8.45;;
48813;SDS011;34634;44.108;3.074;2023-02-13T08:06:17;24.55;;;10.30;;
48813;SDS011;34634;44.108;3.074;2023-02-13T08:08:44;23.42;;;8.10;;
48813;SDS011;34634;44.108;3.074;2023-02-13T08:11:24;24.00;;;7.65;;
48813;SDS011;34634;44.108;3.074;2023-02-13T08:14:09;15.07;;;6.78;;
48813;SDS011;34634;44.108;3.074;2023-02-13T08:16:36;20.42;;;7.95;;
48813;SDS011;34634;44.108;3.074;2023-02-13T08:19:02;21.38;;;7.78;;
48813;SDS011;34634;44.108;3.074;2023-02-13T08:21:29;16.08;;;7.63;;
48813;SDS011;34634;44.108;3.074;2023-02-13T08:23:56;18.48;;;7.00;;
48813;SDS011;34634;44.108;3.074;2023-02-13T08:26:22;14.48;;;7.20;;
48813;SDS011;34634;44.108;3.074;2023-02-13T08:28:49;13.13;;;6.90;;
48813;SDS011;34634;44.108;3.074;2023-02-13T08:31:15;25.15;;;10.82;;
48813;SDS011;34634;44.108;3.074;2023-02-13T08:33:41;23.63;;;8.90;;
48813;SDS011;34634;44.108;3.074;2023-02-13T08:36:08;18.10;;;8.60;;
48813;SDS011;34634;44.108;3.074;2023-02-13T08:38:34;15.68;;;6.57;;
48813;SDS011;34634;44.108;3.074;2023-02-13T08:41:00;21.40;;;7.00;;
48813;SDS011;34634;44.108;3.074;2023-02-13T08:43:27;15.25;;;7.85;;
48813;SDS011;34634;44.108;3.074;2023-02-13T08:45:53;14.25;;;5.90;;
48813;SDS011;34634;44.108;3.074;2023-02-13T08:48:22;14.80;;;6.00;;
48813;SDS011;34634;44.108;3.074;2023-02-13T08:50:49;16.55;;;6.07;;
48813;SDS011;34634;44.108;3.074;2023-02-13T08:53:15;15.40;;;6.22;;
48813;SDS011;34634;44.108;3.074;2023-02-13T08:55:41;12.07;;;6.32;;
48813;SDS011;34634;44.108;3.074;2023-02-13T08:58:07;19.50;;;6.72;;
48813;SDS011;34634;44.108;3.074;2023-02-13T09:00:34;23.17;;;6.35;;
48813;SDS011;34634;44.108;3.074;2023-02-13T09:03:00;11.95;;;6.57;;
48813;SDS011;34634;44.108;3.074;2023-02-13T09:05:27;24.25;;;12.05;;
48813;SDS011;34634;44.108;3.074;2023-02-13T09:07:55;10.10;;;6.85;;
48813;SDS011;34634;44.108;3.074;2023-02-13T09:10:24;14.70;;;7.40;;
48813;SDS011;34634;44.108;3.074;2023-02-13T09:12:51;10.57;;;7.18;;
48813;SDS011;34634;44.108;3.074;2023-02-13T09:15:17;11.27;;;6.43;;
48813;SDS011;34634;44.108;3.074;2023-02-13T09:17:43;23.20;;;8.10;;
48813;SDS011;34634;44.108;3.074;2023-02-13T09:20:10;13.68;;;7.20;;
48813;SDS011;34634;44.108;3.074;2023-02-13T09:22:41;10.75;;;6.82;;
48813;SDS011;34634;44.108;3.074;2023-02-13T09:25:08;13.52;;;7.00;;
48813;SDS011;34634;44.108;3.074;2023-02-13T09:27:34;16.35;;;7.13;;
48813;SDS011;34634;44.108;3.074;2023-02-13T09:30:04;13.07;;;6.68;;
48813;SDS011;34634;44.108;3.074;2023-02-13T09:32:30;11.05;;;6.65;;
48813;SDS011;34634;44.108;3.074;2023-02-13T09:34:58;12.20;;;6.60;;
48813;SDS011;34634;44.108;3.074;2023-02-13T09:37:24;11.52;;;5.80;;
48813;SDS011;34634;44.108;3.074;2023-02-13T09:39:51;9.55;;;5.82;;
48813;SDS011;34634;44.108;3.074;2023-02-13T09:42:22;10.38;;;5.75;;
48813;SDS011;34634;44.108;3.074;2023-02-13T09:44:50;13.82;;;5.28;;
48813;SDS011;34634;44.108;3.074;2023-02-13T09:47:26;15.02;;;5.55;;
48813;SDS011;34634;44.108;3.074;2023-02-13T09:49:55;9.85;;;5.63;;
48813;SDS011;34634;44.108;3.074;2023-02-13T09:52:31;13.15;;;5.70;;
48813;SDS011;34634;44.108;3.074;2023-02-13T09:54:57;12.35;;;5.63;;
48813;SDS011;34634;44.108;3.074;2023-02-13T10:07:44;10.20;;;5.93;;
48813;SDS011;34634;44.108;3.074;2023-02-13T10:17:57;8.27;;;5.57;;
48813;SDS011;34634;44.108;3.074;2023-02-13T10:22:53;7.53;;;4.57;;
48813;SDS011;34634;44.108;3.074;2023-02-13T10:25:24;8.07;;;5.30;;
48813;SDS011;34634;44.108;3.074;2023-02-13T10:27:53;10.02;;;4.90;;
48813;SDS011;34634;44.108;3.074;2023-02-13T10:30:27;12.57;;;5.45;;
48813;SDS011;34634;44.108;3.074;2023-02-13T10:35:40;9.48;;;5.45;;
48813;SDS011;34634;44.108;3.074;2023-02-13T10:38:13;8.52;;;5.00;;
48813;SDS011;34634;44.108;3.074;2023-02-13T10:40:43;8.02;;;5.38;;
48813;SDS011;34634;44.108;3.074;2023-02-13T10:43:14;11.60;;;5.43;;
48813;SDS011;34634;44.108;3.074;2023-02-13T10:45:48;12.77;;;5.43;;
48813;SDS011;34634;44.108;3.074;2023-02-13T10:48:19;9.52;;;5.90;;
48813;SDS011;34634;44.108;3.074;2023-02-13T10:56:23;9.43;;;5.70;;
48813;SDS011;34634;44.108;3.074;2023-02-13T10:59:04;11.88;;;4.90;;
48813;SDS011;34634;44.108;3.074;2023-02-13T11:04:11;12.95;;;5.85;;
48813;SDS011;34634;44.108;3.074;2023-02-13T11:06:42;9.52;;;5.20;;
48813;SDS011;34634;44.108;3.074;2023-02-13T11:09:11;8.23;;;5.18;;
48813;SDS011;34634;44.108;3.074;2023-02-13T11:11:39;9.68;;;5.05;;
48813;SDS011;34634;44.108;3.074;2023-02-13T11:14:16;12.20;;;5.43;;
48813;SDS011;34634;44.108;3.074;2023-02-13T11:19:19;12.82;;;5.88;;
48813;SDS011;34634;44.108;3.074;2023-02-13T11:21:47;20.85;;;6.35;;
48813;SDS011;34634;44.108;3.074;2023-02-13T11:24:20;11.05;;;5.95;;
48813;SDS011;34634;44.108;3.074;2023-02-13T11:26:49;12.25;;;5.68;;
48813;SDS011;34634;44.108;3.074;2023-02-13T11:29:26;11.18;;;6.20;;
48813;SDS011;34634;44.108;3.074;2023-02-13T11:32:04;16.42;;;7.38;;
48813;SDS011;34634;44.108;3.074;2023-02-13T11:34:31;20.10;;;7.38;;
48813;SDS011;34634;44.108;3.074;2023-02-13T11:37:17;13.27;;;6.97;;
48813;SDS011;34634;44.108;3.074;2023-02-13T11:39:45;8.80;;;6.70;;
48813;SDS011;34634;44.108;3.074;2023-02-13T11:44:54;13.10;;;6.50;;
48813;SDS011;34634;44.108;3.074;2023-02-13T11:47:31;8.90;;;6.77;;
48813;SDS011;34634;44.108;3.074;2023-02-13T11:49:58;9.68;;;7.10;;
48813;SDS011;34634;44.108;3.074;2023-02-13T11:52:26;8.38;;;6.55;;
48813;SDS011;34634;44.108;3.074;2023-02-13T11:54:57;8.55;;;7.03;;
48813;SDS011;34634;44.108;3.074;2023-02-13T11:57:33;8.98;;;6.40;;
48813;SDS011;34634;44.108;3.074;2023-02-13T12:00:01;13.57;;;8.27;;
48813;SDS011;34634;44.108;3.074;2023-02-13T12:02:46;11.73;;;7.03;;
48813;SDS011;34634;44.108;3.074;2023-02-13T12:07:43;11.25;;;6.50;;
48813;SDS011;34634;44.108;3.074;2023-02-13T12:10:15;9.60;;;6.93;;
48813;SDS011;34634;44.108;3.074;2023-02-13T12:12:44;11.93;;;6.55;;
48813;SDS011;34634;44.108;3.074;2023-02-13T12:15:20;7.00;;;5.53;;
48813;SDS011;34634;44.108;3.074;2023-02-13T12:17:48;7.93;;;5.82;;
48813;SDS011;34634;44.108;3.074;2023-02-13T12:20:18;9.55;;;6.70;;
48813;SDS011;34634;44.108;3.074;2023-02-13T12:23:02;6.95;;;5.20;;
48813;SDS011;34634;44.108;3.074;2023-02-13T12:28:55;7.85;;;5.60;;
48813;SDS011;34634;44.108;3.074;2023-02-13T12:41:37;9.40;;;5.85;;
48813;SDS011;34634;44.108;3.074;2023-02-13T12:52:06;7.65;;;5.43;;
48813;SDS011;34634;44.108;3.074;2023-02-13T13:05:13;13.52;;;7.45;;
48813;SDS011;34634;44.108;3.074;2023-02-13T13:20:42;6.90;;;5.60;;
48813;SDS011;34634;44.108;3.074;2023-02-13T13:25:43;8.38;;;5.65;;
48813;SDS011;34634;44.108;3.074;2023-02-13T13:28:14;8.10;;;5.88;;
48813;SDS011;34634;44.108;3.074;2023-02-13T13:30:42;9.35;;;5.80;;
48813;SDS011;34634;44.108;3.074;2023-02-13T13:33:12;7.63;;;5.88;;
48813;SDS011;34634;44.108;3.074;2023-02-13T13:38:59;7.75;;;5.47;;
48813;SDS011;34634;44.108;3.074;2023-02-13T13:51:13;8.43;;;6.70;;
48813;SDS011;34634;44.108;3.074;2023-02-13T13:56:26;12.43;;;6.55;;
48813;SDS011;34634;44.108;3.074;2023-02-13T13:58:52;11.15;;;8.00;;
48813;SDS011;34634;44.108;3.074;2023-02-13T14:01:22;14.18;;;6.70;;
48813;SDS011;34634;44.108;3.074;2023-02-13T14:03:49;9.02;;;6.85;;
48813;SDS011;34634;44.108;3.074;2023-02-13T14:06:17;10.10;;;7.10;;
48813;SDS011;34634;44.108;3.074;2023-02-13T14:13:52;11.05;;;6.93;;
48813;SDS011;34634;44.108;3.074;2023-02-13T14:19:04;9.13;;;7.00;;
48813;SDS011;34634;44.108;3.074;2023-02-13T14:21:31;10.93;;;7.18;;
48813;SDS011;34634;44.108;3.074;2023-02-13T14:23:57;14.40;;;7.50;;
48813;SDS011;34634;44.108;3.074;2023-02-13T14:26:32;13.07;;;7.43;;
48813;SDS011;34634;44.108;3.074;2023-02-13T14:31:39;12.05;;;8.07;;
48813;SDS011;34634;44.108;3.074;2023-02-13T14:34:15;15.68;;;8.15;;
48813;SDS011;34634;44.108;3.074;2023-02-13T14:36:43;11.05;;;7.45;;
48813;SDS011;34634;44.108;3.074;2023-02-13T14:41:44;12.80;;;8.10;;
48813;SDS011;34634;44.108;3.074;2023-02-13T14:46:57;13.02;;;8.38;;
48813;SDS011;34634;44.108;3.074;2023-02-13T14:49:26;13.00;;;8.68;;
48813;SDS011;34634;44.108;3.074;2023-02-13T14:51:54;14.52;;;8.82;;
48813;SDS011;34634;44.108;3.074;2023-02-13T14:57:09;12.02;;;7.88;;
48813;SDS011;34634;44.108;3.074;2023-02-13T14:59:40;11.50;;;7.25;;
48813;SDS011;34634;44.108;3.074;2023-02-13T15:04:40;12.48;;;8.70;;
48813;SDS011;34634;44.108;3.074;2023-02-13T15:07:11;13.77;;;8.35;;
48813;SDS011;34634;44.108;3.074;2023-02-13T15:09:39;13.80;;;8.48;;
48813;SDS011;34634;44.108;3.074;2023-02-13T15:14:51;19.98;;;8.73;;
48813;SDS011;34634;44.108;3.074;2023-02-13T15:17:25;18.73;;;8.52;;
48813;SDS011;34634;44.108;3.074;2023-02-13T15:19:54;14.50;;;8.43;;
48813;SDS011;34634;44.108;3.074;2023-02-13T15:22:40;17.58;;;9.00;;
48813;SDS011;34634;44.108;3.074;2023-02-13T15:25:07;14.05;;;9.05;;
48813;SDS011;34634;44.108;3.074;2023-02-13T15:27:40;12.30;;;8.43;;
48813;SDS011;34634;44.108;3.074;2023-02-13T15:30:21;13.52;;;8.30;;
48813;SDS011;34634;44.108;3.074;2023-02-13T15:35:59;13.30;;;8.38;;
48813;SDS011;34634;44.108;3.074;2023-02-13T15:38:27;15.85;;;7.95;;
48813;SDS011;34634;44.108;3.074;2023-02-13T15:43:44;16.75;;;9.23;;
48813;SDS011;34634;44.108;3.074;2023-02-13T15:46:19;14.50;;;8.30;;
48813;SDS011;34634;44.108;3.074;2023-02-13T15:48:46;23.38;;;9.30;;
48813;SDS011;34634;44.108;3.074;2023-02-13T15:51:19;14.77;;;8.60;;
48813;SDS011;34634;44.108;3.074;2023-02-13T15:53:52;14.85;;;8.35;;
48813;SDS011;34634;44.108;3.074;2023-02-13T15:56:20;17.70;;;8.52;;
48813;SDS011;34634;44.108;3.074;2023-02-13T15:58:46;14.25;;;8.32;;
48813;SDS011;34634;44.108;3.074;2023-02-13T16:01:13;18.20;;;8.65;;
48813;SDS011;34634;44.108;3.074;2023-02-13T16:03:40;13.05;;;8.38;;
48813;SDS011;34634;44.108;3.074;2023-02-13T16:06:12;13.15;;;8.20;;
48813;SDS011;34634;44.108;3.074;2023-02-13T16:08:42;14.38;;;8.13;;
48813;SDS011;34634;44.108;3.074;2023-02-13T16:16:27;17.48;;;8.82;;
48813;SDS011;34634;44.108;3.074;2023-02-13T16:18:53;14.40;;;8.57;;
48813;SDS011;34634;44.108;3.074;2023-02-13T16:21:23;17.58;;;9.60;;
48813;SDS011;34634;44.108;3.074;2023-02-13T16:26:17;15.77;;;9.30;;
48813;SDS011;34634;44.108;3.074;2023-02-13T16:28:46;16.77;;;9.70;;
48813;SDS011;34634;44.108;3.074;2023-02-13T16:31:14;15.30;;;8.80;;
48813;SDS011;34634;44.108;3.074;2023-02-13T16:33:41;15.35;;;8.88;;
48813;SDS011;34634;44.108;3.074;2023-02-13T16:38:38;16.42;;;8.93;;
48813;SDS011;34634;44.108;3.074;2023-02-13T16:48:45;18.60;;;9.73;;
48813;SDS011;34634;44.108;3.074;2023-02-13T16:51:11;19.45;;;9.25;;
48813;SDS011;34634;44.108;3.074;2023-02-13T16:53:38;21.65;;;10.25;;
48813;SDS011;34634;44.108;3.074;2023-02-13T16:56:06;22.10;;;11.30;;
48813;SDS011;34634;44.108;3.074;2023-02-13T16:58:33;18.80;;;8.77;;
48813;SDS011;34634;44.108;3.074;2023-02-13T17:01:00;17.48;;;9.20;;
48813;SDS011;34634;44.108;3.074;2023-02-13T17:03:27;20.67;;;9.23;;
48813;SDS011;34634;44.108;3.074;2023-02-13T17:05:54;17.85;;;9.68;;
48813;SDS011;34634;44.108;3.074;2023-02-13T17:08:20;19.63;;;9.02;;
48813;SDS011;34634;44.108;3.074;2023-02-13T17:11:03;18.35;;;9.68;;
48813;SDS011;34634;44.108;3.074;2023-02-13T17:13:30;18.15;;;9.45;;
48813;SDS011;34634;44.108;3.074;2023-02-13T17:15:56;16.48;;;9.10;;
48813;SDS011;34634;44.108;3.074;2023-02-13T17:18:24;17.33;;;8.85;;
48813;SDS011;34634;44.108;3.074;2023-02-13T17:20:51;16.40;;;8.80;;
48813;SDS011;34634;44.108;3.074;2023-02-13T17:23:23;19.90;;;9.60;;
48813;SDS011;34634;44.108;3.074;2023-02-13T17:25:50;19.17;;;8.75;;
48813;SDS011;34634;44.108;3.074;2023-02-13T17:28:19;15.43;;;9.23;;
48813;SDS011;34634;44.108;3.074;2023-02-13T17:30:46;20.85;;;9.52;;
48813;SDS011;34634;44.108;3.074;2023-02-13T17:35:38;19.30;;;9.70;;
48813;SDS011;34634;44.108;3.074;2023-02-13T17:38:05;17.98;;;9.45;;
48813;SDS011;34634;44.108;3.074;2023-02-13T17:40:33;18.90;;;9.20;;
48813;SDS011;34634;44.108;3.074;2023-02-13T17:43:00;15.13;;;8.55;;
48813;SDS011;34634;44.108;3.074;2023-02-13T17:45:27;16.17;;;9.63;;
48813;SDS011;34634;44.108;3.074;2023-02-13T17:47:54;25.13;;;11.30;;
48813;SDS011;34634;44.108;3.074;2023-02-13T17:50:22;16.50;;;10.27;;
48813;SDS011;34634;44.108;3.074;2023-02-13T17:52:48;20.90;;;11.93;;
48813;SDS011;34634;44.108;3.074;2023-02-13T17:55:16;20.02;;;10.75;;
48813;SDS011;34634;44.108;3.074;2023-02-13T17:57:45;16.60;;;10.32;;
48813;SDS011;34634;44.108;3.074;2023-02-13T18:00:12;17.55;;;10.55;;
48813;SDS011;34634;44.108;3.074;2023-02-13T18:02:39;21.27;;;11.75;;
48813;SDS011;34634;44.108;3.074;2023-02-13T18:05:07;25.42;;;13.02;;